Time;durP1;ratioP1;P1;durP2;ratioP2;P2;SDS_P1;SDS_P2;PMS_P1;PMS_P2;Temp;Humidity;BMP_temperature;BMP_pressure;BME280_temperature;BME280_humidity;BME280_pressure;Samples;Min_cycle;Max_cycle;Signal;HPM_P1;HPM_P2
2022/07/01 00:01:47;;;;;;;7.67;6.30;;;;;;;21.81;64.64;99568.81;1683361;85;22023;-42
2022/07/01 00:04:16;;;;;;;8.55;6.25;;;;;;;21.84;64.51;99569.32;1683566;85;21029;-42
2022/07/01 00:06:43;;;;;;;7.15;6.45;;;;;;;21.85;64.51;99568.13;1683382;85;21057;-43
2022/07/01 00:09:10;;;;;;;9.15;6.37;;;;;;;21.83;64.53;99569.17;1683250;85;21037;-43
2022/07/01 00:11:37;;;;;;;7.35;6.37;;;;;;;21.82;64.60;99568.99;1683344;84;21085;-43
2022/07/01 00:14:04;;;;;;;9.88;6.55;;;;;;;21.80;64.57;99570.02;1710385;83;21508;-43
2022/07/01 00:16:31;;;;;;;8.88;6.97;;;;;;;21.78;64.60;99577.18;1700495;84;20985;-43
2022/07/01 00:18:57;;;;;;;7.35;6.60;;;;;;;21.74;64.71;99572.33;1710149;83;21047;-43
2022/07/01 00:21:24;;;;;;;6.65;6.05;;;;;;;21.71;64.88;99573.97;1700490;84;21000;-42
2022/07/01 00:23:51;;;;;;;6.53;5.87;;;;;;;21.71;64.98;99571.81;1710295;83;21092;-43
2022/07/01 00:26:18;;;;;;;7.28;5.97;;;;;;;21.71;64.99;99571.81;1700625;84;21628;-43
2022/07/01 00:28:45;;;;;;;7.22;6.47;;;;;;;21.72;65.05;99576.91;1710176;83;20993;-43
2022/07/01 00:31:13;;;;;;;7.00;6.00;;;;;;;21.71;65.08;99569.05;1710641;83;20999;-43
2022/07/01 00:33:39;;;;;;;7.37;6.62;;;;;;;21.71;65.15;99575.95;1716194;83;20983;-43
2022/07/01 00:36:06;;;;;;;7.10;6.17;;;;;;;21.69;65.30;99573.61;1716348;83;21047;-42
2022/07/01 00:38:34;;;;;;;10.00;7.00;;;;;;;21.69;65.44;99571.63;1716304;83;21236;-43
2022/07/01 00:41:03;;;;;;;8.18;6.10;;;;;;;21.68;65.50;99567.95;1716590;83;20963;-43
2022/07/01 00:43:36;;;;;;;7.40;5.62;;;;;;;21.68;65.46;99568.72;1716173;83;20994;-42
2022/07/01 00:46:03;;;;;;;6.97;6.08;;;;;;;21.74;65.52;99571.72;1716064;83;21087;-43
2022/07/01 00:48:33;;;;;;;9.28;6.60;;;;;;;21.78;65.65;99572.45;1720772;83;21067;-43
2022/07/01 00:51:01;;;;;;;8.50;7.00;;;;;;;21.80;65.99;99570.61;1691795;84;20948;-43
2022/07/01 00:53:29;;;;;;;7.10;6.35;;;;;;;21.77;66.51;99570.88;1684699;84;21075;-43
2022/07/01 00:55:56;;;;;;;7.20;6.45;;;;;;;21.74;66.88;99572.33;1697535;84;21563;-43
2022/07/01 00:58:28;;;;;;;9.98;6.20;;;;;;;21.75;67.01;99568.36;1697477;84;21064;-43
2022/07/01 01:00:56;;;;;;;7.25;6.08;;;;;;;21.80;67.03;99574.16;1697574;84;21097;-43
2022/07/01 01:03:23;;;;;;;9.08;6.58;;;;;;;21.84;66.82;99577.60;1697911;84;21178;-43
2022/07/01 01:05:50;;;;;;;8.50;6.50;;;;;;;21.83;66.80;99576.67;1669615;84;21577;-43
2022/07/01 01:08:18;;;;;;;6.87;6.28;;;;;;;21.78;66.85;99583.48;1697525;84;21029;-43
2022/07/01 01:10:45;;;;;;;9.13;6.75;;;;;;;21.75;66.81;99576.05;1697699;84;21812;-43
2022/07/01 01:13:15;;;;;;;9.30;6.37;;;;;;;21.73;66.77;99575.72;1697628;84;21036;-43
2022/07/01 01:15:42;;;;;;;7.08;5.72;;;;;;;21.75;66.72;99571.12;1697715;84;21234;-43
2022/07/01 01:18:09;;;;;;;8.05;6.33;;;;;;;21.77;66.54;99574.24;1697686;84;20973;-43
2022/07/01 01:20:37;;;;;;;8.48;6.60;;;;;;;21.79;66.25;99580.09;1697552;84;21040;-43
2022/07/01 01:23:07;;;;;;;7.20;6.50;;;;;;;21.77;66.10;99578.38;1693040;84;21076;-43
2022/07/01 01:25:34;;;;;;;7.30;6.12;;;;;;;21.74;66.09;99573.11;1697598;84;21104;-43
2022/07/01 01:28:01;;;;;;;7.30;6.08;;;;;;;21.72;66.13;99578.89;1697618;84;21953;-43
2022/07/01 01:30:28;;;;;;;6.58;5.90;;;;;;;21.69;66.41;99586.03;1697315;83;21044;-43
2022/07/01 01:32:55;;;;;;;6.67;5.97;;;;;;;21.68;66.56;99578.98;1697535;84;20985;-43
2022/07/01 01:35:23;;;;;;;11.03;6.08;;;;;;;21.69;66.66;99581.89;1697454;84;21022;-43
2022/07/01 01:37:52;;;;;;;7.90;6.40;;;;;;;21.73;66.77;99578.47;1697748;84;21132;-43
2022/07/01 01:40:19;;;;;;;8.80;6.10;;;;;;;21.72;66.96;99578.89;1697539;84;21193;-43
2022/07/01 01:42:47;;;;;;;9.78;6.53;;;;;;;21.71;67.05;99582.85;1697650;84;21013;-42
2022/07/01 01:45:14;;;;;;;7.67;6.75;;;;;;;21.70;66.99;99590.34;1697411;84;21069;-43
2022/07/01 01:47:41;;;;;;;9.18;6.10;;;;;;;21.69;66.77;99591.55;1669402;84;21286;-43
2022/07/01 01:50:10;;;;;;;7.45;5.95;;;;;;;21.68;66.64;99586.66;1664168;86;21009;-43
2022/07/01 01:52:38;;;;;;;6.70;5.97;;;;;;;21.71;66.58;99589.16;1664592;86;21807;-43
2022/07/01 01:55:06;;;;;;;7.00;6.30;;;;;;;21.72;66.50;99582.43;1664343;85;21523;-43
2022/07/01 01:57:33;;;;;;;10.18;6.72;;;;;;;21.72;66.64;99589.93;1664270;86;21009;-43
2022/07/01 02:00:04;;;;;;;8.60;6.50;;;;;;;21.71;66.71;99588.37;1664224;86;21909;-43
2022/07/01 02:02:33;;;;;;;7.22;5.97;;;;;;;21.70;66.66;99588.97;1662935;86;21115;-43
2022/07/01 02:05:00;;;;;;;6.65;5.60;;;;;;;21.68;66.73;99591.40;1664067;86;23253;-42
2022/07/01 02:07:27;;;;;;;8.48;5.75;;;;;;;21.67;66.59;99593.98;1664077;86;20995;-43
2022/07/01 02:09:54;;;;;;;6.67;6.00;;;;;;;21.69;66.46;99591.55;1664122;86;21048;-43
2022/07/01 02:12:21;;;;;;;8.20;6.58;;;;;;;21.70;66.38;99587.59;1663999;86;21653;-43
2022/07/01 02:14:48;;;;;;;7.37;6.17;;;;;;;21.69;66.29;99588.79;1664274;86;21534;-43
2022/07/01 02:17:15;;;;;;;6.83;5.87;;;;;;;21.64;66.20;99587.92;1664049;86;23174;-43
2022/07/01 02:19:42;;;;;;;8.93;6.62;;;;;;;21.61;66.25;99587.41;1664114;86;21028;-42
2022/07/01 02:22:10;;;;;;;7.15;6.45;;;;;;;21.58;66.29;99588.27;1664168;86;21005;-42
2022/07/01 02:24:37;;;;;;;8.08;6.90;;;;;;;21.57;66.25;99592.23;1664187;86;21016;-43
2022/07/01 02:27:04;;;;;;;7.33;6.55;;;;;;;21.60;66.25;99591.36;1664216;86;21052;-43
2022/07/01 02:29:31;;;;;;;7.90;6.60;;;;;;;21.63;66.47;99583.63;1664350;86;21174;-43
2022/07/01 02:32:00;;;;;;;7.37;6.58;;;;;;;21.64;66.54;99590.08;1703133;83;21547;-43
2022/07/01 02:34:27;;;;;;;7.25;6.62;;;;;;;21.64;66.55;99594.81;1720810;83;20993;-43
2022/07/01 02:36:55;;;;;;;8.13;7.33;;;;;;;21.62;66.62;99591.13;1721128;83;20969;-43
2022/07/01 02:39:22;;;;;;;9.20;7.10;;;;;;;21.61;66.74;99588.78;1720953;83;21040;-42
2022/07/01 02:46:14;;;;;;;7.67;6.95;;;;;;;21.74;66.98;99596.56;1779799;79;22626;-43
2022/07/01 02:48:41;;;;;;;9.20;7.30;;;;;;;21.64;67.40;99596.98;1739213;81;20977;-43
2022/07/01 02:51:08;;;;;;;9.15;6.87;;;;;;;21.66;67.71;99595.95;1739164;82;21233;-43
2022/07/01 02:53:35;;;;;;;7.62;6.80;;;;;;;21.68;67.86;99592.78;1739126;82;20962;-43
2022/07/01 02:56:02;;;;;;;7.00;6.30;;;;;;;21.67;67.97;99584.32;1739136;82;20938;-43
2022/07/01 02:58:29;;;;;;;9.00;5.83;;;;;;;21.69;68.03;99590.17;1738893;82;21227;-43
2022/07/01 03:00:57;;;;;;;7.35;6.62;;;;;;;21.78;68.00;99589.60;1739103;82;20899;-43
2022/07/01 03:03:23;;;;;;;7.83;6.62;;;;;;;21.84;67.79;99587.86;1739052;82;21296;-43
2022/07/01 03:05:50;;;;;;;7.05;6.45;;;;;;;21.87;67.78;99589.78;1739133;82;20998;-43
2022/07/01 03:08:18;;;;;;;7.80;6.70;;;;;;;21.91;67.75;99588.48;1739095;82;20958;-43
2022/07/01 03:10:45;;;;;;;9.88;7.30;;;;;;;21.94;67.65;99589.63;1739238;82;20907;-43
2022/07/01 03:13:12;;;;;;;7.40;6.22;;;;;;;21.93;67.66;99595.75;1739286;82;21021;-43
2022/07/01 03:15:39;;;;;;;8.63;6.20;;;;;;;21.91;68.04;99593.23;1739486;82;21233;-43
2022/07/01 03:18:06;;;;;;;7.00;6.30;;;;;;;21.93;68.39;99590.83;1739358;82;20970;-43
2022/07/01 03:20:33;;;;;;;6.90;6.30;;;;;;;22.01;68.36;99599.91;1739160;82;20946;-43
2022/07/01 03:23:01;;;;;;;7.80;6.95;;;;;;;22.05;68.17;99600.61;1739103;82;21030;-43
2022/07/01 03:25:28;;;;;;;9.23;7.28;;;;;;;22.07;67.85;99603.69;1739201;82;21517;-43
2022/07/01 03:27:55;;;;;;;9.03;7.40;;;;;;;22.03;67.96;99598.86;1739048;82;21232;-43
2022/07/01 03:30:22;;;;;;;7.65;6.80;;;;;;;22.07;67.96;99607.08;1738970;82;21013;-43
2022/07/01 03:32:48;;;;;;;7.03;6.33;;;;;;;22.09;67.86;99608.19;1739196;82;21070;-43
2022/07/01 03:38:03;;;;;;;11.48;9.98;;;;;;;22.22;67.58;99611.66;1739146;82;20947;-43
2022/07/01 03:40:34;;;;;;;9.33;7.67;;;;;;;22.24;67.96;99620.27;1738953;82;21211;-43
2022/07/01 03:43:02;;;;;;;10.58;9.48;;;;;;;22.30;68.35;99618.55;1739123;82;21014;-43
2022/07/01 03:45:31;;;;;;;8.78;7.90;;;;;;;22.33;67.74;99623.20;1748193;81;21481;-43
2022/07/01 03:47:59;;;;;;;10.45;7.47;;;;;;;22.32;67.54;99621.64;1755303;81;21572;-43
2022/07/01 03:50:26;;;;;;;9.45;8.08;;;;;;;22.40;67.59;99623.83;1755017;81;21557;-43
2022/07/01 03:55:39;;;;;;;9.73;7.75;;;;;;;22.51;67.13;99630.47;1755128;81;20978;-43
2022/07/01 03:58:06;;;;;;;10.75;8.25;;;;;;;22.54;67.24;99626.22;1754497;81;21046;-43
2022/07/01 04:00:36;;;;;;;11.30;7.30;;;;;;;22.60;67.24;99632.01;1754234;81;21462;-43
2022/07/01 04:03:05;;;;;;;;;;;;;;;22.66;67.15;99634.39;1756860;81;21086;-43
2022/07/01 04:05:35;;;;;;;8.28;7.35;;;;;;;22.76;66.86;99637.52;1753989;81;21145;-43
2022/07/01 04:08:04;;;;;;;8.13;7.33;;;;;;;22.70;66.81;99635.13;1754205;81;21533;-43
2022/07/01 04:10:34;;;;;;;8.03;7.23;;;;;;;22.76;66.70;99636.73;1754898;81;20907;-43
2022/07/01 04:13:02;;;;;;;7.47;6.80;;;;;;;22.80;66.35;99631.28;1754306;81;21397;-43
2022/07/01 04:15:29;;;;;;;7.08;6.45;;;;;;;22.85;66.17;99631.39;1754640;81;21050;-43
2022/07/01 04:17:56;;;;;;;6.75;5.97;;;;;;;22.93;65.88;99636.89;1754395;81;21250;-43
2022/07/01 04:20:23;;;;;;;9.10;6.53;;;;;;;23.05;65.87;99629.84;1754137;81;22123;-43
2022/07/01 04:22:50;;;;;;;6.80;6.08;;;;;;;23.18;65.14;99630.07;1754436;81;21022;-43
2022/07/01 04:25:18;;;;;;;7.92;6.37;;;;;;;23.26;64.67;99626.48;1754351;81;21007;-43
2022/07/01 04:27:45;;;;;;;7.62;6.60;;;;;;;23.34;64.57;99619.52;1754447;81;21031;-43
2022/07/01 04:30:12;;;;;;;6.95;6.35;;;;;;;23.42;64.55;99627.80;1754537;81;21561;-43
2022/07/01 04:32:39;;;;;;;7.20;6.25;;;;;;;23.48;64.34;99628.07;1754575;81;20971;-43
2022/07/01 04:35:07;;;;;;;7.10;6.05;;;;;;;23.50;64.02;99625.02;1754484;81;21002;-43
2022/07/01 04:37:35;;;;;;;8.38;6.03;;;;;;;23.53;63.58;99628.28;1754790;81;21094;-43
2022/07/01 04:40:02;;;;;;;9.23;6.80;;;;;;;23.61;63.58;99628.25;1754385;81;21034;-43
2022/07/01 04:42:29;;;;;;;7.25;6.55;;;;;;;23.69;63.64;99630.97;1754520;81;21931;-43
2022/07/01 04:44:58;;;;;;;7.00;6.30;;;;;;;23.72;63.83;99626.55;1748755;81;21066;-43
2022/07/01 04:47:25;;;;;;;7.23;6.60;;;;;;;23.76;63.68;99628.00;1728283;81;21073;-43
2022/07/01 04:49:52;;;;;;;7.87;7.12;;;;;;;23.78;63.37;99631.08;1727969;83;21031;-43
2022/07/01 04:52:20;;;;;;;8.75;7.10;;;;;;;23.77;63.92;99635.67;1728084;83;21026;-43
2022/07/01 04:54:47;;;;;;;7.53;6.72;;;;;;;23.78;64.07;99636.62;1728056;83;21185;-43
2022/07/01 04:57:14;;;;;;;6.97;6.37;;;;;;;23.83;63.75;99638.06;1727967;83;21524;-43
2022/07/01 04:59:43;;;;;;;7.25;6.55;;;;;;;23.89;63.79;99641.06;1728031;83;21023;-43
2022/07/01 05:02:09;;;;;;;9.18;7.08;;;;;;;23.94;64.09;99639.90;1728003;83;21093;-43
2022/07/01 05:04:40;;;;;;;8.08;7.28;;;;;;;24.01;63.48;99647.22;1728032;83;21086;-43
2022/07/01 05:07:06;;;;;;;8.43;7.47;;;;;;;24.00;63.13;99642.89;1728371;81;21521;-43
2022/07/01 05:09:35;;;;;;;7.00;6.30;;;;;;;24.00;63.18;99646.45;1727889;83;21078;-43
2022/07/01 05:12:05;;;;;;;8.33;6.50;;;;;;;24.02;62.92;99650.91;1740130;82;21000;-43
2022/07/01 05:14:34;;;;;;;10.18;6.60;;;;;;;24.08;62.70;99648.37;1749311;82;20944;-44
2022/07/01 05:17:02;;;;;;;7.70;6.92;;;;;;;24.17;62.78;99649.28;1749154;82;21079;-43
2022/07/01 05:22:15;;;;;;;7.90;7.17;;;;;;;24.34;62.65;99644.39;1748963;82;21003;-43
2022/07/01 05:24:42;;;;;;;9.43;7.87;;;;;;;24.42;62.94;99645.70;1749208;82;21020;-43
2022/07/01 05:27:09;;;;;;;9.08;8.10;;;;;;;24.50;62.58;99641.47;1748895;82;21495;-43
2022/07/01 05:29:36;;;;;;;8.48;7.33;;;;;;;24.55;62.72;99640.90;1749037;82;20953;-43
2022/07/01 05:32:04;;;;;;;11.48;7.10;;;;;;;24.62;62.29;99642.06;1748826;82;23193;-43
2022/07/01 05:34:32;;;;;;;7.03;6.33;;;;;;;24.67;61.84;99642.87;1749087;82;21370;-43
2022/07/01 05:36:58;;;;;;;8.43;6.47;;;;;;;24.75;61.48;99653.71;1749014;82;20979;-43
2022/07/01 05:39:25;;;;;;;7.58;6.78;;;;;;;24.79;60.35;99655.75;1749001;82;21044;-43
2022/07/01 05:41:52;;;;;;;10.98;7.20;;;;;;;24.78;60.81;99653.61;1749037;82;21079;-43
2022/07/01 05:44:21;;;;;;;8.03;6.80;;;;;;;24.83;61.11;99657.20;1748941;82;21153;-43
2022/07/01 05:46:48;;;;;;;7.55;6.12;;;;;;;24.90;60.46;99658.97;1746386;81;20965;-43
2022/07/01 05:49:15;;;;;;;7.50;6.05;;;;;;;24.93;60.20;99659.47;1743559;81;20954;-43
2022/07/01 05:51:45;;;;;;;10.38;6.03;;;;;;;24.97;59.55;99656.73;1707711;84;21080;-43
2022/07/01 05:54:12;;;;;;;8.98;6.72;;;;;;;25.02;58.73;99656.77;1705722;84;21045;-43
2022/07/01 05:56:39;;;;;;;7.55;6.60;;;;;;;25.03;58.55;99650.75;1682230;85;21152;-43
2022/07/01 05:59:06;;;;;;;7.58;6.65;;;;;;;25.01;59.03;99649.66;1699890;84;21024;-43
2022/07/01 06:01:33;;;;;;;9.78;6.75;;;;;;;25.04;58.39;99645.38;1671464;85;21009;-43
2022/07/01 06:04:01;;;;;;;7.65;5.83;;;;;;;25.09;58.56;99654.50;1734978;82;20969;-43
2022/07/01 06:06:28;;;;;;;6.92;6.17;;;;;;;25.13;58.78;99641.88;1734927;82;20966;-43
2022/07/01 06:08:56;;;;;;;6.90;5.90;;;;;;;25.18;59.17;99645.47;1731740;82;21144;-43
2022/07/01 06:11:23;;;;;;;7.90;6.15;;;;;;;25.28;59.23;99644.31;1732836;82;20934;-43
2022/07/01 06:13:51;;;;;;;12.10;5.95;;;;;;;25.42;59.26;99645.78;1731966;82;21064;-43
2022/07/01 06:16:18;;;;;;;8.15;6.08;;;;;;;25.58;59.12;99646.22;1716660;82;20984;-45
2022/07/01 06:18:45;;;;;;;8.30;6.25;;;;;;;25.70;58.78;99634.27;1722934;82;21101;-45
2022/07/01 06:21:14;;;;;;;9.55;6.45;;;;;;;25.81;58.67;99636.00;1717879;82;21233;-45
2022/07/01 06:23:41;;;;;;;7.50;6.10;;;;;;;25.89;57.42;99631.12;1735003;82;20895;-45
2022/07/01 06:26:09;;;;;;;7.92;6.47;;;;;;;25.94;57.34;99633.30;1731980;82;21005;-45
2022/07/01 06:28:36;;;;;;;7.50;5.95;;;;;;;25.94;57.08;99634.69;1719406;82;21476;-44
2022/07/01 06:31:03;;;;;;;7.55;5.83;;;;;;;25.98;57.25;99633.16;1734796;82;21057;-45
2022/07/01 06:33:30;;;;;;;6.25;5.65;;;;;;;26.03;56.35;99636.72;1721621;82;21087;-44
2022/07/01 06:35:57;;;;;;;6.22;5.40;;;;;;;26.04;56.63;99642.45;1705585;84;21005;-45
2022/07/01 06:38:25;;;;;;;6.03;5.53;;;;;;;26.06;56.32;99638.58;1710680;82;21583;-44
2022/07/01 06:41:38;;;;;;;5.97;5.05;;;;;;;26.07;55.98;99629.63;1735098;82;21002;-45
2022/07/01 06:43:21;;;;;;;7.07;5.63;;;;;;;26.08;55.85;99632.57;1697069;82;21472;-44
2022/07/01 06:45:48;;;;;;;5.90;5.30;;;;;;;26.09;55.90;99633.52;1734794;82;21167;-45
2022/07/01 06:48:16;;;;;;;5.92;5.22;;;;;;;26.12;56.14;99631.19;1746035;81;20902;-45
2022/07/01 06:50:43;;;;;;;5.33;4.83;;;;;;;26.21;56.44;99627.66;1724864;82;21391;-45
2022/07/01 06:53:10;;;;;;;5.55;5.00;;;;;;;26.29;55.65;99624.16;1678249;83;21604;-44
2022/07/01 06:55:38;;;;;;;5.78;5.03;;;;;;;26.35;55.62;99621.55;1725684;82;21070;-44
2022/07/01 06:58:05;;;;;;;8.25;5.12;;;;;;;26.35;55.53;99622.94;1749093;81;21125;-45
2022/07/01 07:00:32;;;;;;;6.33;4.97;;;;;;;26.32;55.48;99617.70;1748771;82;20968;-44
2022/07/01 07:02:59;;;;;;;6.80;5.58;;;;;;;26.33;55.16;99621.25;1745266;82;21035;-45
2022/07/01 07:05:26;;;;;;;6.10;5.50;;;;;;;26.36;55.81;99628.66;1736515;82;21620;-45
2022/07/01 07:07:55;;;;;;;6.40;5.75;;;;;;;26.45;55.48;99629.28;1732335;82;21044;-44
2022/07/01 07:10:22;;;;;;;7.75;6.10;;;;;;;26.55;54.44;99626.68;1719159;83;21080;-44
2022/07/01 07:12:49;;;;;;;7.40;6.62;;;;;;;26.63;54.96;99627.30;1718974;83;20929;-45
2022/07/01 07:15:18;;;;;;;10.08;7.28;;;;;;;26.76;55.33;99626.56;1719175;83;21032;-44
2022/07/01 07:17:45;;;;;;;7.72;6.78;;;;;;;26.86;54.53;99624.58;1719230;83;21029;-44
2022/07/01 07:20:12;;;;;;;9.18;7.33;;;;;;;26.88;54.31;99620.70;1727764;82;21049;-46
2022/07/01 07:22:39;;;;;;;8.98;7.20;;;;;;;26.86;54.19;99620.99;1741964;82;21234;-46
2022/07/01 07:25:07;;;;;;;7.80;6.87;;;;;;;26.90;54.99;99621.02;1742336;82;21015;-46
2022/07/01 07:27:35;;;;;;;10.90;7.42;;;;;;;26.99;54.78;99609.89;1736918;82;21091;-46
2022/07/01 07:30:03;;;;;;;13.85;7.37;;;;;;;27.09;54.37;99608.64;1745068;82;21765;-46
2022/07/01 07:32:30;;;;;;;7.58;6.50;;;;;;;27.19;54.31;99608.78;1749088;82;21045;-46
2022/07/01 07:34:57;;;;;;;8.03;6.67;;;;;;;27.27;54.36;99612.63;1746657;82;21093;-46
2022/07/01 07:37:23;;;;;;;7.72;6.30;;;;;;;27.35;53.06;99615.25;1729934;82;21072;-44
2022/07/01 07:39:50;;;;;;;6.33;5.50;;;;;;;27.39;52.86;99617.25;1719475;82;21000;-43
2022/07/01 07:42:17;;;;;;;6.90;5.45;;;;;;;27.46;52.10;99610.72;1740683;82;21012;-43
2022/07/01 07:44:44;;;;;;;6.67;5.35;;;;;;;27.61;51.28;99616.44;1748000;82;21513;-42
2022/07/01 07:47:12;;;;;;;7.12;5.80;;;;;;;27.75;49.01;99610.19;1743568;81;21164;-42
2022/07/01 07:49:39;;;;;;;7.05;5.90;;;;;;;27.91;49.26;99602.86;1734787;82;21530;-43
2022/07/01 07:52:06;;;;;;;7.60;6.35;;;;;;;28.04;49.23;99610.98;1735256;82;21045;-43
2022/07/01 07:54:33;;;;;;;8.35;6.37;;;;;;;28.17;49.38;99603.23;1735287;82;21523;-43
2022/07/01 07:57:01;;;;;;;8.83;6.42;;;;;;;28.31;49.77;99603.14;1735040;82;21096;-42
2022/07/01 07:59:28;;;;;;;8.13;6.55;;;;;;;28.44;49.90;99604.44;1735062;82;21126;-42
2022/07/01 08:01:55;;;;;;;11.20;7.03;;;;;;;28.56;49.62;99602.66;1735161;82;21005;-43
2022/07/01 08:04:22;;;;;;;9.05;7.08;;;;;;;28.56;50.00;99608.87;1735145;82;20993;-42
2022/07/01 08:06:49;;;;;;;7.60;6.80;;;;;;;28.51;49.10;99611.69;1735066;82;20966;-42
2022/07/01 08:09:26;;;;;;;8.60;6.42;;;;;;;28.34;49.36;99606.36;1731934;82;21001;-44
2022/07/01 08:11:53;;;;;;;8.53;5.70;;;;;;;28.18;49.53;99606.77;1735352;82;21131;-42
2022/07/01 08:14:20;;;;;;;8.38;5.83;;;;;;;27.99;49.39;99605.44;1734925;82;21997;-43
2022/07/01 08:16:47;;;;;;;10.32;6.20;;;;;;;27.89;49.00;99608.12;1735290;82;20950;-43
2022/07/01 08:19:14;;;;;;;10.40;5.55;;;;;;;27.86;49.61;99606.28;1734959;82;21492;-43
2022/07/01 08:21:41;;;;;;;7.00;5.40;;;;;;;27.89;50.33;99594.19;1735113;82;21033;-43
2022/07/01 08:24:08;;;;;;;6.67;4.40;;;;;;;27.95;49.37;99603.45;1735257;82;21250;-42
2022/07/01 08:26:36;;;;;;;5.95;4.50;;;;;;;28.02;47.16;99598.16;1735105;82;21013;-43
2022/07/01 08:29:03;;;;;;;5.10;4.30;;;;;;;28.12;46.59;99594.73;1735240;81;20931;-43
2022/07/01 08:31:31;;;;;;;5.20;4.70;;;;;;;28.27;46.74;99600.51;1735422;82;21146;-43
2022/07/01 08:33:59;;;;;;;5.12;4.35;;;;;;;28.45;46.47;99592.66;1735475;82;21762;-43
2022/07/01 08:36:25;;;;;;;5.17;4.65;;;;;;;28.67;46.85;99588.92;1732443;82;21982;-43
2022/07/01 08:38:53;;;;;;;6.70;4.47;;;;;;;28.88;45.17;99593.44;1705903;82;21520;-42
2022/07/01 08:41:20;;;;;;;5.05;4.30;;;;;;;29.01;45.61;99591.75;1705866;84;20910;-42
2022/07/01 08:43:47;;;;;;;5.60;4.40;;;;;;;29.17;45.09;99589.13;1705668;84;21013;-43
2022/07/01 08:46:14;;;;;;;5.00;4.25;;;;;;;29.31;44.81;99584.20;1731371;82;21564;-43
2022/07/01 08:48:44;;;;;;;7.37;4.60;;;;;;;29.53;45.20;99590.80;1733482;82;22095;-43
2022/07/01 08:51:12;;;;;;;5.25;3.80;;;;;;;29.68;45.14;99585.31;1733356;82;20927;-44
2022/07/01 08:53:39;;;;;;;4.08;3.60;;;;;;;29.76;42.64;99585.08;1733663;82;21517;-44
2022/07/01 08:58:52;;;;;;;4.85;4.30;;;;;;;29.74;42.88;99581.98;1662690;85;21075;-45
2022/07/01 09:01:24;;;;;;;8.55;4.25;;;;;;;29.74;41.42;99581.98;1718200;82;21299;-44
2022/07/01 09:03:56;;;;;;;6.45;4.28;;;;;;;29.72;41.64;99580.94;1735315;82;21076;-44
2022/07/01 09:06:28;;;;;;;4.62;4.22;;;;;;;29.77;42.24;99578.86;1705401;84;21041;-43
2022/07/01 09:08:55;;;;;;;4.65;4.20;;;;;;;29.83;41.44;99574.10;1705962;83;21118;-44
2022/07/01 09:11:25;;;;;;;5.33;4.00;;;;;;;29.92;41.95;99581.00;1652317;85;21053;-43
2022/07/01 09:14:12;;;;;;;4.85;4.35;;;;;;;30.06;42.40;99575.24;1667397;86;21119;-43
2022/07/01 09:16:46;;;;;;;6.17;4.25;;;;;;;30.12;41.29;99576.07;1667267;84;21060;-44
2022/07/01 09:19:14;;;;;;;7.10;4.05;;;;;;;30.09;41.63;99571.46;1682537;84;21132;-42
2022/07/01 09:21:40;;;;;;;4.25;3.87;;;;;;;30.11;42.38;99579.48;1679340;84;21065;-42
2022/07/01 09:24:37;;;;;;;5.60;4.00;;;;;;;30.09;40.07;99578.45;1677931;84;21081;-42
2022/07/01 09:27:11;;;;;;;4.67;3.80;;;;;;;29.98;40.42;99574.09;1695099;84;21119;-42
2022/07/01 09:29:45;;;;;;;3.62;3.30;;;;;;;29.86;41.33;99580.77;1671884;84;20989;-42
2022/07/01 09:32:14;;;;;;;4.03;3.55;;;;;;;29.77;41.16;99578.20;1705742;84;20998;-42
2022/07/01 09:34:43;;;;;;;4.43;4.03;;;;;;;29.74;41.58;99577.79;1704698;82;21035;-42
2022/07/01 09:37:15;;;;;;;5.00;3.72;;;;;;;29.74;39.67;99576.39;1735169;82;21548;-42
2022/07/01 09:39:48;;;;;;;6.20;3.87;;;;;;;29.79;39.31;99572.14;1723195;82;21068;-42
2022/07/01 09:42:19;;;;;;;4.08;3.67;;;;;;;29.92;40.01;99560.69;1705392;84;21479;-42
2022/07/01 09:44:59;;;;;;;5.25;4.45;;;;;;;30.10;40.25;99554.83;1718663;82;20978;-42
2022/07/01 09:47:26;;;;;;;;;;;;;;;30.23;40.54;99562.24;1673583;85;21267;-42
2022/07/01 09:49:54;;;;;;;5.05;4.30;;;;;;;30.33;39.97;99566.44;1678699;85;20179;-42
2022/07/01 09:52:22;;;;;;;4.17;3.77;;;;;;;30.31;40.02;99563.35;1666822;86;21235;-42
2022/07/01 09:54:50;;;;;;;4.78;4.17;;;;;;;30.40;38.89;99547.08;1666869;86;21028;-42
2022/07/01 09:57:18;;;;;;;6.83;3.90;;;;;;;30.54;39.57;99549.05;1669014;84;20969;-42
2022/07/01 09:59:46;;;;;;;4.90;4.40;;;;;;;30.61;39.31;99540.98;1667062;84;21128;-42
2022/07/01 10:02:13;;;;;;;7.15;5.12;;;;;;;30.61;39.73;99549.38;1666751;86;21041;-42
2022/07/01 10:04:57;;;;;;;5.28;4.22;;;;;;;30.54;40.21;99549.83;1666600;86;21169;-43
2022/07/01 10:07:53;;;;;;;5.00;4.33;;;;;;;30.49;40.19;99546.33;1694197;84;21009;-44
2022/07/01 10:10:44;;;;;;;6.28;4.55;;;;;;;30.39;40.71;99551.91;1694926;84;21020;-46
2022/07/01 10:13:14;;;;;;;6.80;4.40;;;;;;;30.28;41.03;99559.37;1668033;84;21120;-44
2022/07/01 10:15:45;;;;;;;5.33;4.58;;;;;;;30.16;42.09;99558.48;1666625;86;21049;-43
2022/07/01 10:18:26;;;;;;;5.57;5.07;;;;;;;30.09;42.28;99544.89;1667348;86;21106;-43
2022/07/01 10:20:54;;;;;;;5.53;4.30;;;;;;;30.08;42.83;99553.14;1669023;84;21024;-43
2022/07/01 10:23:25;;;;;;;5.95;4.78;;;;;;;30.12;42.62;99552.30;1667320;86;21056;-43
2022/07/01 10:25:53;;;;;;;5.10;4.50;;;;;;;30.17;42.49;99549.58;1638166;86;21081;-44
2022/07/01 10:28:30;;;;;;;5.65;4.55;;;;;;;30.28;41.81;99544.77;1666796;86;21129;-43
2022/07/01 10:31:15;;;;;;;5.17;4.47;;;;;;;30.34;42.59;99543.44;1693894;84;21140;-44
2022/07/01 10:33:47;;;;;;;5.70;4.35;;;;;;;30.37;41.50;99541.82;1685676;84;21057;-46
2022/07/01 10:36:35;;;;;;;5.55;4.28;;;;;;;30.35;41.16;99544.36;1679219;85;21076;-46
2022/07/01 10:39:07;;;;;;;4.90;4.40;;;;;;;30.49;41.99;99538.56;1721430;82;21053;-44
2022/07/01 10:41:44;;;;;;;7.62;4.72;;;;;;;30.74;41.00;99535.66;1736750;82;21033;-44
2022/07/01 10:44:20;;;;;;;5.00;4.50;;;;;;;31.10;40.70;99525.84;1713569;83;21346;-44
2022/07/01 10:46:58;;;;;;;5.35;4.85;;;;;;;31.48;39.26;99519.78;1725510;82;21033;-44
2022/07/01 10:49:52;;;;;;;5.83;4.17;;;;;;;31.84;38.72;99521.08;1734601;81;21004;-46
2022/07/01 10:52:19;;;;;;;4.47;3.83;;;;;;;32.24;37.89;99519.37;1719840;82;21084;-45
2022/07/01 10:54:49;;;;;;;5.12;4.28;;;;;;;32.75;37.72;99521.73;1711396;82;21527;-43
2022/07/01 10:57:29;;;;;;;4.50;4.10;;;;;;;33.08;36.69;99518.95;1704770;82;21263;-43
2022/07/01 11:00:05;;;;;;;4.92;4.33;;;;;;;33.27;35.95;99515.66;1713717;82;20954;-43
2022/07/01 11:02:48;;;;;;;7.33;4.30;;;;;;;33.25;36.04;99515.42;1714020;82;21634;-45
2022/07/01 11:05:18;;;;;;;6.53;3.90;;;;;;;33.13;36.26;99518.83;1717718;82;21081;-45
2022/07/01 11:07:46;;;;;;;6.78;3.85;;;;;;;32.93;35.99;99525.45;1711255;82;21041;-46
2022/07/01 11:10:15;;;;;;;6.62;4.10;;;;;;;32.74;36.12;99527.21;1723088;82;21225;-45
2022/07/01 11:12:46;;;;;;;7.42;3.90;;;;;;;32.53;36.20;99521.66;1721718;82;21010;-46
2022/07/01 11:15:15;;;;;;;4.28;3.87;;;;;;;32.33;35.84;99517.77;1713845;82;25937;-46
2022/07/01 11:17:45;;;;;;;5.15;4.00;;;;;;;32.36;36.35;99522.99;1705856;84;21093;-46
2022/07/01 11:20:12;;;;;;;4.22;3.45;;;;;;;32.51;36.13;99514.38;1705956;82;21013;-46
2022/07/01 11:22:39;;;;;;;5.28;3.60;;;;;;;32.84;35.61;99515.88;1709494;82;21151;-46
2022/07/01 11:25:10;;;;;;;5.00;3.30;;;;;;;33.24;34.72;99510.44;1718930;82;21519;-46
2022/07/01 11:27:37;;;;;;;5.05;3.58;;;;;;;33.66;33.87;99510.77;1671436;85;20992;-46
2022/07/01 11:30:09;;;;;;;4.80;3.25;;;;;;;34.09;33.62;99508.36;1732146;82;20942;-46
2022/07/01 11:32:43;;;;;;;6.28;3.60;;;;;;;34.48;32.74;99501.17;1734857;82;21017;-46
2022/07/01 11:41:18;;;;;;;3.60;2.95;;;;;;;35.43;30.94;99490.02;1735039;82;20930;-46
2022/07/01 11:43:46;;;;;;;5.75;3.00;;;;;;;35.79;30.18;99488.50;1735320;82;21077;-48
2022/07/01 11:46:14;;;;;;;4.03;2.98;;;;;;;36.11;29.78;99487.36;1724429;82;21053;-48
2022/07/01 11:48:44;;;;;;;3.25;2.95;;;;;;;36.23;29.98;99482.99;1711994;81;21146;-48
2022/07/01 11:51:17;;;;;;;4.28;2.95;;;;;;;36.25;29.34;99496.70;1716569;82;20962;-48
2022/07/01 11:53:46;;;;;;;5.45;2.95;;;;;;;36.26;29.71;99491.18;1725572;82;21048;-46
2022/07/01 11:56:13;;;;;;;4.05;3.15;;;;;;;36.35;29.64;99484.38;1705521;84;21599;-46
2022/07/01 11:58:49;;;;;;;3.60;3.12;;;;;;;36.64;28.67;99477.06;1724469;82;21041;-46
2022/07/01 12:01:26;;;;;;;6.08;3.30;;;;;;;36.98;28.99;99477.42;1734763;82;21246;-46
2022/07/01 12:03:54;;;;;;;4.60;3.30;;;;;;;37.18;27.74;99476.06;1718168;82;22069;-46